Slidell, Texas
Current Conditions -  °F | °C
As of 4:35 PM on Monday 20 Oct 2014 (Local Time) from KLUD Reporting Station
Broken Clouds Broken Clouds  
Wind Chill: 81°   Ceiling: 7500
Heat Index: 81°   Visibility: 10mi
Dew Point: 57°   Wind: 0mph
Humidity: 44%   Direction: NA
Pressure: 30.02"   Gusts: NA
Location:  33.36°N, 97.39°W
Report Text: KLUD 202135Z AUTO 00000KT 10SM BKN075 27/14 A3002 RMK AO2 T02710138
Loading
Personal Weather Stations






























Interactive Weather Map
Tropical Storm Tracking
New forecast layout! Learn more

10-Day Weather Forecast

Advertisements
Track Severe Weather on mobile